sensor_id;sensor_type;location;lat;lon;timestamp;pressure;altitude;pressure_sealevel;temperature;humidity
76448;BME280;65284;51.040;13.722;2023-04-08T00:00:52;100266.81;;;3.79;91.69
76448;BME280;65284;51.040;13.722;2023-04-08T00:03:19;100257.53;;;3.86;91.46
76448;BME280;65284;51.040;13.722;2023-04-08T00:05:46;100257.53;;;3.86;91.59
76448;BME280;65284;51.040;13.722;2023-04-08T00:08:12;100248.59;;;3.88;90.97
76448;BME280;65284;51.040;13.722;2023-04-08T00:10:39;100255.88;;;3.85;91.46
76448;BME280;65284;51.040;13.722;2023-04-08T00:13:05;100261.59;;;3.90;91.16
76448;BME280;65284;51.040;13.722;2023-04-08T00:15:31;100259.94;;;3.89;91.25
76448;BME280;65284;51.040;13.722;2023-04-08T00:17:58;100258.88;;;3.92;91.06
76448;BME280;65284;51.040;13.722;2023-04-08T00:20:25;100260.78;;;3.90;91.23
76448;BME280;65284;51.040;13.722;2023-04-08T00:22:51;100256.25;;;3.92;91.58
76448;BME280;65284;51.040;13.722;2023-04-08T00:25:18;100256.81;;;3.84;91.61
76448;BME280;65284;51.040;13.722;2023-04-08T00:27:44;100243.22;;;3.90;92.01
76448;BME280;65284;51.040;13.722;2023-04-08T00:30:11;100260.69;;;3.91;91.82
76448;BME280;65284;51.040;13.722;2023-04-08T00:32:37;100251.97;;;3.91;91.39
76448;BME280;65284;51.040;13.722;2023-04-08T00:35:04;100249.22;;;3.92;91.96
76448;BME280;65284;51.040;13.722;2023-04-08T00:37:30;100253.28;;;3.96;91.97
76448;BME280;65284;51.040;13.722;2023-04-08T00:39:57;100246.94;;;3.87;92.44
76448;BME280;65284;51.040;13.722;2023-04-08T00:42:23;100256.13;;;3.93;91.99
76448;BME280;65284;51.040;13.722;2023-04-08T00:44:50;100250.66;;;3.96;91.86
76448;BME280;65284;51.040;13.722;2023-04-08T00:47:16;100254.75;;;4.00;92.06
76448;BME280;65284;51.040;13.722;2023-04-08T00:49:44;100255.94;;;4.07;91.73
76448;BME280;65284;51.040;13.722;2023-04-08T00:52:11;100260.31;;;3.96;92.25
76448;BME280;65284;51.040;13.722;2023-04-08T00:54:37;100262.63;;;4.00;92.13
76448;BME280;65284;51.040;13.722;2023-04-08T00:57:05;100254.28;;;4.06;91.92
76448;BME280;65284;51.040;13.722;2023-04-08T00:59:32;100259.41;;;4.08;92.07
76448;BME280;65284;51.040;13.722;2023-04-08T01:02:09;100251.66;;;4.06;92.30
76448;BME280;65284;51.040;13.722;2023-04-08T01:04:52;100253.91;;;4.00;92.43
76448;BME280;65284;51.040;13.722;2023-04-08T01:07:24;100248.53;;;4.01;92.73
76448;BME280;65284;51.040;13.722;2023-04-08T01:09:55;100245.91;;;4.01;92.67
76448;BME280;65284;51.040;13.722;2023-04-08T01:12:28;100246.72;;;4.02;92.84
76448;BME280;65284;51.040;13.722;2023-04-08T01:14:59;100248.44;;;4.03;92.27
76448;BME280;65284;51.040;13.722;2023-04-08T01:17:27;100248.53;;;4.01;93.11
76448;BME280;65284;51.040;13.722;2023-04-08T01:19:56;100247.47;;;4.04;93.46
76448;BME280;65284;51.040;13.722;2023-04-08T01:22:26;100244.09;;;4.02;93.54
76448;BME280;65284;51.040;13.722;2023-04-08T01:24:59;100242.81;;;4.07;93.47
76448;BME280;65284;51.040;13.722;2023-04-08T01:27:29;100241.44;;;4.15;93.17
76448;BME280;65284;51.040;13.722;2023-04-08T01:29:57;100239.25;;;4.08;93.19
76448;BME280;65284;51.040;13.722;2023-04-08T01:32:25;100243.78;;;4.06;93.48
76448;BME280;65284;51.040;13.722;2023-04-08T01:34:53;100245.44;;;4.07;93.78
76448;BME280;65284;51.040;13.722;2023-04-08T01:37:21;100255.13;;;4.07;94.04
76448;BME280;65284;51.040;13.722;2023-04-08T01:39:48;100247.25;;;4.07;94.21
76448;BME280;65284;51.040;13.722;2023-04-08T01:42:15;100245.56;;;4.06;94.17
76448;BME280;65284;51.040;13.722;2023-04-08T01:44:42;100251.44;;;4.09;94.37
76448;BME280;65284;51.040;13.722;2023-04-08T01:47:09;100237.31;;;4.10;94.53
76448;BME280;65284;51.040;13.722;2023-04-08T01:49:38;100234.69;;;4.10;94.28
76448;BME280;65284;51.040;13.722;2023-04-08T01:52:05;100231.38;;;4.08;94.52
76448;BME280;65284;51.040;13.722;2023-04-08T01:54:34;100240.91;;;4.09;94.69
76448;BME280;65284;51.040;13.722;2023-04-08T01:57:04;100246.19;;;4.09;95.13
76448;BME280;65284;51.040;13.722;2023-04-08T01:59:35;100241.66;;;4.12;95.27
76448;BME280;65284;51.040;13.722;2023-04-08T02:02:06;100244.28;;;4.12;94.92
76448;BME280;65284;51.040;13.722;2023-04-08T02:04:35;100249.31;;;4.15;94.45
76448;BME280;65284;51.040;13.722;2023-04-08T02:07:03;100252.25;;;4.10;94.86
76448;BME280;65284;51.040;13.722;2023-04-08T02:09:29;100253.31;;;4.07;95.18
76448;BME280;65284;51.040;13.722;2023-04-08T02:11:56;100259.47;;;4.19;94.97
76448;BME280;65284;51.040;13.722;2023-04-08T02:14:23;100248.56;;;4.13;95.14
76448;BME280;65284;51.040;13.722;2023-04-08T02:16:53;100258.88;;;4.16;95.39
76448;BME280;65284;51.040;13.722;2023-04-08T02:19:26;100265.56;;;4.20;95.22
76448;BME280;65284;51.040;13.722;2023-04-08T02:22:01;100260.81;;;4.25;95.40
76448;BME280;65284;51.040;13.722;2023-04-08T02:24:31;100258.31;;;4.23;95.62
76448;BME280;65284;51.040;13.722;2023-04-08T02:26:59;100255.78;;;4.22;95.88
76448;BME280;65284;51.040;13.722;2023-04-08T02:29:29;100256.00;;;4.19;96.17
76448;BME280;65284;51.040;13.722;2023-04-08T02:31:56;100257.28;;;4.13;96.54
76448;BME280;65284;51.040;13.722;2023-04-08T02:34:24;100265.09;;;4.15;96.59
76448;BME280;65284;51.040;13.722;2023-04-08T02:36:51;100259.81;;;4.15;96.42
76448;BME280;65284;51.040;13.722;2023-04-08T02:39:17;100260.44;;;4.18;96.74
76448;BME280;65284;51.040;13.722;2023-04-08T02:41:43;100259.59;;;4.18;96.87
76448;BME280;65284;51.040;13.722;2023-04-08T02:44:10;100257.28;;;4.13;96.69
76448;BME280;65284;51.040;13.722;2023-04-08T02:46:36;100261.88;;;4.22;96.75
76448;BME280;65284;51.040;13.722;2023-04-08T02:49:03;100267.25;;;4.21;96.67
76448;BME280;65284;51.040;13.722;2023-04-08T02:51:29;100267.47;;;4.18;96.57
76448;BME280;65284;51.040;13.722;2023-04-08T02:53:57;100278.94;;;4.17;96.56
76448;BME280;65284;51.040;13.722;2023-04-08T02:56:23;100272.84;;;4.16;96.95
76448;BME280;65284;51.040;13.722;2023-04-08T02:58:50;100273.44;;;4.20;96.71
76448;BME280;65284;51.040;13.722;2023-04-08T03:01:17;100276.94;;;4.20;96.31
76448;BME280;65284;51.040;13.722;2023-04-08T03:03:43;100275.63;;;4.26;96.40
76448;BME280;65284;51.040;13.722;2023-04-08T03:06:10;100278.03;;;4.29;96.19
76448;BME280;65284;51.040;13.722;2023-04-08T03:08:37;100284.59;;;4.23;96.42
76448;BME280;65284;51.040;13.722;2023-04-08T03:11:03;100272.38;;;4.22;96.54
76448;BME280;65284;51.040;13.722;2023-04-08T03:13:29;100268.38;;;4.29;96.57
76448;BME280;65284;51.040;13.722;2023-04-08T03:15:56;100263.34;;;4.26;96.76
76448;BME280;65284;51.040;13.722;2023-04-08T03:18:23;100271.31;;;4.25;97.09
76448;BME280;65284;51.040;13.722;2023-04-08T03:20:50;100271.81;;;4.30;96.59
76448;BME280;65284;51.040;13.722;2023-04-08T03:23:16;100265.09;;;4.26;96.48
76448;BME280;65284;51.040;13.722;2023-04-08T03:25:43;100270.88;;;4.31;96.77
76448;BME280;65284;51.040;13.722;2023-04-08T03:28:09;100274.69;;;4.27;96.57
76448;BME280;65284;51.040;13.722;2023-04-08T03:30:36;100269.44;;;4.27;96.93
76448;BME280;65284;51.040;13.722;2023-04-08T03:33:02;100274.09;;;4.23;97.19
76448;BME280;65284;51.040;13.722;2023-04-08T03:35:33;100268.81;;;4.23;97.36
76448;BME280;65284;51.040;13.722;2023-04-08T03:37:59;100260.94;;;4.23;97.06
76448;BME280;65284;51.040;13.722;2023-04-08T03:40:26;100272.28;;;4.24;97.29
76448;BME280;65284;51.040;13.722;2023-04-08T03:42:52;100272.16;;;4.25;97.17
76448;BME280;65284;51.040;13.722;2023-04-08T03:45:19;100270.16;;;4.29;97.27
76448;BME280;65284;51.040;13.722;2023-04-08T03:47:45;100271.09;;;4.28;97.33
76448;BME280;65284;51.040;13.722;2023-04-08T03:50:12;100274.47;;;4.30;97.37
76448;BME280;65284;51.040;13.722;2023-04-08T03:52:38;100262.69;;;4.23;97.28
76448;BME280;65284;51.040;13.722;2023-04-08T03:55:05;100267.72;;;4.26;97.36
76448;BME280;65284;51.040;13.722;2023-04-08T03:57:31;100276.34;;;4.28;97.34
76448;BME280;65284;51.040;13.722;2023-04-08T03:59:58;100278.03;;;4.29;98.17
76448;BME280;65284;51.040;13.722;2023-04-08T04:02:24;100278.88;;;4.29;97.76
76448;BME280;65284;51.040;13.722;2023-04-08T04:04:51;100276.84;;;4.33;97.55
76448;BME280;65284;51.040;13.722;2023-04-08T04:07:17;100271.69;;;4.31;97.58
76448;BME280;65284;51.040;13.722;2023-04-08T04:09:44;100279.72;;;4.30;97.91
76448;BME280;65284;51.040;13.722;2023-04-08T04:12:10;100278.53;;;4.34;97.90
76448;BME280;65284;51.040;13.722;2023-04-08T04:14:36;100289.03;;;4.34;97.67
76448;BME280;65284;51.040;13.722;2023-04-08T04:17:03;100285.34;;;4.37;97.67
76448;BME280;65284;51.040;13.722;2023-04-08T04:19:30;100283.06;;;4.32;97.71
76448;BME280;65284;51.040;13.722;2023-04-08T04:21:56;100289.78;;;4.36;97.83
76448;BME280;65284;51.040;13.722;2023-04-08T04:24:23;100287.88;;;4.38;97.65
76448;BME280;65284;51.040;13.722;2023-04-08T04:26:49;100285.50;;;4.46;97.54
76448;BME280;65284;51.040;13.722;2023-04-08T04:29:16;100293.13;;;4.38;97.60
76448;BME280;65284;51.040;13.722;2023-04-08T04:31:42;100289.41;;;4.41;97.91
76448;BME280;65284;51.040;13.722;2023-04-08T04:34:09;100292.69;;;4.44;97.61
76448;BME280;65284;51.040;13.722;2023-04-08T04:36:35;100298.03;;;4.43;97.64
76448;BME280;65284;51.040;13.722;2023-04-08T04:39:02;100304.34;;;4.40;97.80
76448;BME280;65284;51.040;13.722;2023-04-08T04:41:28;100294.06;;;4.37;97.79
76448;BME280;65284;51.040;13.722;2023-04-08T04:43:55;100295.63;;;4.40;97.49
76448;BME280;65284;51.040;13.722;2023-04-08T04:46:21;100299.94;;;4.41;97.96
76448;BME280;65284;51.040;13.722;2023-04-08T04:48:48;100292.41;;;4.36;97.95
76448;BME280;65284;51.040;13.722;2023-04-08T04:51:15;100306.97;;;4.40;98.21
76448;BME280;65284;51.040;13.722;2023-04-08T04:53:41;100313.06;;;4.41;98.07
76448;BME280;65284;51.040;13.722;2023-04-08T04:56:07;100318.25;;;4.42;98.24
76448;BME280;65284;51.040;13.722;2023-04-08T04:58:34;100315.38;;;4.45;98.16
76448;BME280;65284;51.040;13.722;2023-04-08T05:01:00;100321.09;;;4.39;98.00
76448;BME280;65284;51.040;13.722;2023-04-08T05:03:27;100316.81;;;4.38;98.14
76448;BME280;65284;51.040;13.722;2023-04-08T05:05:53;100309.16;;;4.35;98.20
76448;BME280;65284;51.040;13.722;2023-04-08T05:08:20;100315.59;;;4.42;98.44
76448;BME280;65284;51.040;13.722;2023-04-08T05:10:47;100322.53;;;4.43;97.98
76448;BME280;65284;51.040;13.722;2023-04-08T05:13:18;100326.97;;;4.43;98.07
76448;BME280;65284;51.040;13.722;2023-04-08T05:15:45;100324.69;;;4.38;98.00
76448;BME280;65284;51.040;13.722;2023-04-08T05:18:12;100330.44;;;4.43;98.27
76448;BME280;65284;51.040;13.722;2023-04-08T05:20:39;100326.13;;;4.42;98.29
76448;BME280;65284;51.040;13.722;2023-04-08T05:23:05;100326.72;;;4.46;98.72
76448;BME280;65284;51.040;13.722;2023-04-08T05:25:32;100324.00;;;4.47;98.41
76448;BME280;65284;51.040;13.722;2023-04-08T05:27:59;100332.38;;;4.52;98.15
76448;BME280;65284;51.040;13.722;2023-04-08T05:30:25;100320.88;;;4.42;98.37
76448;BME280;65284;51.040;13.722;2023-04-08T05:32:52;100330.09;;;4.48;98.33
76448;BME280;65284;51.040;13.722;2023-04-08T05:35:19;100325.94;;;4.56;98.00
76448;BME280;65284;51.040;13.722;2023-04-08T05:37:45;100336.56;;;4.55;97.79
76448;BME280;65284;51.040;13.722;2023-04-08T05:40:12;100327.75;;;4.56;97.81
76448;BME280;65284;51.040;13.722;2023-04-08T05:42:38;100337.44;;;4.55;98.12
76448;BME280;65284;51.040;13.722;2023-04-08T05:45:05;100335.28;;;4.61;97.65
76448;BME280;65284;51.040;13.722;2023-04-08T05:47:32;100339.59;;;4.62;98.10
76448;BME280;65284;51.040;13.722;2023-04-08T05:49:58;100346.84;;;4.58;98.06
76448;BME280;65284;51.040;13.722;2023-04-08T05:52:25;100339.47;;;4.63;98.48
76448;BME280;65284;51.040;13.722;2023-04-08T05:54:51;100346.06;;;4.69;97.82
76448;BME280;65284;51.040;13.722;2023-04-08T05:57:17;100350.81;;;4.64;97.89
76448;BME280;65284;51.040;13.722;2023-04-08T05:59:44;100348.94;;;4.66;98.31
76448;BME280;65284;51.040;13.722;2023-04-08T06:02:11;100347.88;;;4.68;98.08
76448;BME280;65284;51.040;13.722;2023-04-08T06:04:37;100346.06;;;4.69;98.24
76448;BME280;65284;51.040;13.722;2023-04-08T06:07:04;100357.81;;;4.76;98.25
76448;BME280;65284;51.040;13.722;2023-04-08T06:09:34;100354.94;;;4.79;97.98
76448;BME280;65284;51.040;13.722;2023-04-08T06:12:00;100360.44;;;4.76;98.39
76448;BME280;65284;51.040;13.722;2023-04-08T06:14:27;100357.56;;;4.79;98.45
76448;BME280;65284;51.040;13.722;2023-04-08T06:16:53;100368.59;;;4.84;98.07
76448;BME280;65284;51.040;13.722;2023-04-08T06:19:22;100363.34;;;4.84;97.87
76448;BME280;65284;51.040;13.722;2023-04-08T06:21:49;100364.91;;;4.87;97.75
76448;BME280;65284;51.040;13.722;2023-04-08T06:24:16;100369.78;;;4.80;97.84
76448;BME280;65284;51.040;13.722;2023-04-08T06:26:43;100374.31;;;4.78;98.41
76448;BME280;65284;51.040;13.722;2023-04-08T06:29:10;100374.09;;;4.81;98.74
76448;BME280;65284;51.040;13.722;2023-04-08T06:31:36;100377.00;;;4.89;98.89
76448;BME280;65284;51.040;13.722;2023-04-08T06:34:03;100373.63;;;4.87;98.43
76448;BME280;65284;51.040;13.722;2023-04-08T06:36:29;100384.16;;;4.87;98.85
76448;BME280;65284;51.040;13.722;2023-04-08T06:38:56;100377.59;;;4.93;98.69
76448;BME280;65284;51.040;13.722;2023-04-08T06:41:22;100381.06;;;4.93;98.61
76448;BME280;65284;51.040;13.722;2023-04-08T06:43:49;100378.34;;;5.06;98.96
76448;BME280;65284;51.040;13.722;2023-04-08T06:46:15;100389.94;;;5.04;98.34
76448;BME280;65284;51.040;13.722;2023-04-08T06:48:42;100389.84;;;5.16;98.20
76448;BME280;65284;51.040;13.722;2023-04-08T06:51:08;100393.56;;;5.14;97.95
76448;BME280;65284;51.040;13.722;2023-04-08T06:53:35;100394.28;;;5.16;98.03
76448;BME280;65284;51.040;13.722;2023-04-08T06:56:01;100397.88;;;5.15;98.07
76448;BME280;65284;51.040;13.722;2023-04-08T06:58:28;100403.88;;;5.28;97.81
76448;BME280;65284;51.040;13.722;2023-04-08T07:00:58;100402.91;;;5.29;97.31
76448;BME280;65284;51.040;13.722;2023-04-08T07:03:24;100407.84;;;5.34;97.38
76448;BME280;65284;51.040;13.722;2023-04-08T07:05:52;100416.22;;;5.28;97.19
76448;BME280;65284;51.040;13.722;2023-04-08T07:08:18;100411.81;;;5.62;96.87
76448;BME280;65284;51.040;13.722;2023-04-08T07:10:45;100411.06;;;5.37;96.69
76448;BME280;65284;51.040;13.722;2023-04-08T07:13:11;100413.22;;;5.43;95.67
76448;BME280;65284;51.040;13.722;2023-04-08T07:15:38;100421.88;;;5.45;95.21
76448;BME280;65284;51.040;13.722;2023-04-08T07:18:04;100420.91;;;5.58;95.06
76448;BME280;65284;51.040;13.722;2023-04-08T07:20:31;100422.59;;;5.59;95.00
76448;BME280;65284;51.040;13.722;2023-04-08T07:22:57;100427.63;;;5.62;94.44
76448;BME280;65284;51.040;13.722;2023-04-08T07:25:24;100423.22;;;5.62;94.87
76448;BME280;65284;51.040;13.722;2023-04-08T07:27:50;100432.44;;;5.68;93.96
76448;BME280;65284;51.040;13.722;2023-04-08T07:30:18;100432.91;;;5.73;93.65
76448;BME280;65284;51.040;13.722;2023-04-08T07:32:44;100440.31;;;5.79;93.63
76448;BME280;65284;51.040;13.722;2023-04-08T07:35:11;100435.53;;;5.84;93.99
76448;BME280;65284;51.040;13.722;2023-04-08T07:37:37;100439.59;;;5.88;94.05
76448;BME280;65284;51.040;13.722;2023-04-08T07:40:04;100440.59;;;5.99;93.67
76448;BME280;65284;51.040;13.722;2023-04-08T07:42:31;100445.63;;;6.02;93.97
76448;BME280;65284;51.040;13.722;2023-04-08T07:44:57;100447.06;;;6.06;93.50
76448;BME280;65284;51.040;13.722;2023-04-08T07:47:24;100454.72;;;6.09;93.34
76448;BME280;65284;51.040;13.722;2023-04-08T07:49:50;100464.69;;;6.17;93.45
76448;BME280;65284;51.040;13.722;2023-04-08T07:52:17;100466.59;;;6.14;92.49
76448;BME280;65284;51.040;13.722;2023-04-08T07:54:44;100465.75;;;6.14;92.04
76448;BME280;65284;51.040;13.722;2023-04-08T07:57:10;100470.19;;;6.13;88.98
76448;BME280;65284;51.040;13.722;2023-04-08T07:59:37;100464.78;;;6.15;87.02
76448;BME280;65284;51.040;13.722;2023-04-08T08:02:03;100471.75;;;6.16;86.59
76448;BME280;65284;51.040;13.722;2023-04-08T08:04:30;100466.72;;;6.13;87.07
76448;BME280;65284;51.040;13.722;2023-04-08T08:06:58;100474.41;;;6.16;86.35
76448;BME280;65284;51.040;13.722;2023-04-08T08:09:24;100480.50;;;6.17;86.42
76448;BME280;65284;51.040;13.722;2023-04-08T08:11:51;100479.66;;;6.16;87.37
76448;BME280;65284;51.040;13.722;2023-04-08T08:14:17;100479.44;;;6.19;86.56
76448;BME280;65284;51.040;13.722;2023-04-08T08:16:44;100480.84;;;6.23;85.30
76448;BME280;65284;51.040;13.722;2023-04-08T08:19:10;100479.88;;;6.35;85.39
76448;BME280;65284;51.040;13.722;2023-04-08T08:21:39;100478.94;;;6.36;85.77
76448;BME280;65284;51.040;13.722;2023-04-08T08:24:05;100491.63;;;6.43;85.57
76448;BME280;65284;51.040;13.722;2023-04-08T08:26:35;100489.69;;;6.45;85.20
76448;BME280;65284;51.040;13.722;2023-04-08T08:29:04;100484.19;;;6.48;85.27
76448;BME280;65284;51.040;13.722;2023-04-08T08:31:34;100496.41;;;6.49;84.22
76448;BME280;65284;51.040;13.722;2023-04-08T08:34:00;100491.13;;;6.49;84.33
76448;BME280;65284;51.040;13.722;2023-04-08T08:36:27;100492.81;;;6.50;84.38
76448;BME280;65284;51.040;13.722;2023-04-08T08:38:53;100494.50;;;6.51;84.01
76448;BME280;65284;51.040;13.722;2023-04-08T08:41:20;100495.94;;;6.55;83.74
76448;BME280;65284;51.040;13.722;2023-04-08T08:43:47;100498.06;;;6.61;82.98
76448;BME280;65284;51.040;13.722;2023-04-08T08:46:16;100500.72;;;6.61;84.03
76448;BME280;65284;51.040;13.722;2023-04-08T08:48:43;100505.75;;;6.64;83.78
76448;BME280;65284;51.040;13.722;2023-04-08T08:51:10;100510.75;;;6.78;83.66
76448;BME280;65284;51.040;13.722;2023-04-08T08:53:37;100510.84;;;6.77;84.16
76448;BME280;65284;51.040;13.722;2023-04-08T08:56:07;100498.84;;;6.84;84.27
76448;BME280;65284;51.040;13.722;2023-04-08T08:58:37;100508.66;;;6.93;81.50
76448;BME280;65284;51.040;13.722;2023-04-08T09:01:32;100522.78;;;7.03;80.87
76448;BME280;65284;51.040;13.722;2023-04-08T09:04:07;100514.59;;;7.06;80.23
76448;BME280;65284;51.040;13.722;2023-04-08T09:06:35;100522.28;;;7.10;79.76
76448;BME280;65284;51.040;13.722;2023-04-08T09:09:02;100527.91;;;7.16;81.06
76448;BME280;65284;51.040;13.722;2023-04-08T09:11:31;100520.19;;;7.24;80.85
76448;BME280;65284;51.040;13.722;2023-04-08T09:13:58;100525.97;;;7.18;81.02
76448;BME280;65284;51.040;13.722;2023-04-08T09:16:24;100526.56;;;7.22;82.00
76448;BME280;65284;51.040;13.722;2023-04-08T09:18:52;100532.44;;;7.25;81.63
76448;BME280;65284;51.040;13.722;2023-04-08T09:21:21;100528.56;;;7.29;81.18
76448;BME280;65284;51.040;13.722;2023-04-08T09:23:50;100530.50;;;7.27;79.67
76448;BME280;65284;51.040;13.722;2023-04-08T09:26:22;100536.97;;;7.35;80.27
76448;BME280;65284;51.040;13.722;2023-04-08T09:29:00;100537.53;;;7.38;79.68
76448;BME280;65284;51.040;13.722;2023-04-08T09:31:43;100548.25;;;7.37;80.43
76448;BME280;65284;51.040;13.722;2023-04-08T09:34:14;100546.75;;;7.44;80.02
76448;BME280;65284;51.040;13.722;2023-04-08T09:36:42;100549.34;;;7.55;79.63
76448;BME280;65284;51.040;13.722;2023-04-08T09:39:10;100547.19;;;7.60;79.90
76448;BME280;65284;51.040;13.722;2023-04-08T09:41:37;100544.44;;;7.71;78.27
76448;BME280;65284;51.040;13.722;2023-04-08T09:44:06;100548.84;;;7.61;77.16
76448;BME280;65284;51.040;13.722;2023-04-08T09:46:35;100551.44;;;7.72;77.04
76448;BME280;65284;51.040;13.722;2023-04-08T09:49:43;100544.44;;;7.71;77.21
76448;BME280;65284;51.040;13.722;2023-04-08T09:52:23;100553.63;;;7.67;75.98
76448;BME280;65284;51.040;13.722;2023-04-08T09:55:03;100554.19;;;7.71;75.85
76448;BME280;65284;51.040;13.722;2023-04-08T09:57:45;100545.88;;;7.75;76.00
76448;BME280;65284;51.040;13.722;2023-04-08T10:00:17;100559.16;;;7.64;75.86
76448;BME280;65284;51.040;13.722;2023-04-08T10:03:05;100558.59;;;7.61;76.92
76448;BME280;65284;51.040;13.722;2023-04-08T10:05:36;100555.22;;;7.59;75.21
76448;BME280;65284;51.040;13.722;2023-04-08T10:08:04;100555.16;;;7.49;76.20
76448;BME280;65284;51.040;13.722;2023-04-08T10:10:33;100559.88;;;7.66;75.14
76448;BME280;65284;51.040;13.722;2023-04-08T10:13:03;100561.81;;;7.64;76.01
76448;BME280;65284;51.040;13.722;2023-04-08T10:15:31;100551.69;;;7.69;76.19
76448;BME280;65284;51.040;13.722;2023-04-08T10:23:01;100561.50;;;7.79;75.48
76448;BME280;65284;51.040;13.722;2023-04-08T10:25:37;100573.09;;;7.66;76.58
76448;BME280;65284;51.040;13.722;2023-04-08T10:30:47;100570.72;;;7.63;75.25
76448;BME280;65284;51.040;13.722;2023-04-08T10:33:20;100583.94;;;7.63;74.95
76448;BME280;65284;51.040;13.722;2023-04-08T10:35:58;100579.53;;;7.73;74.19
76448;BME280;65284;51.040;13.722;2023-04-08T10:38:24;100576.44;;;7.68;75.00
76448;BME280;65284;51.040;13.722;2023-04-08T10:40:52;100572.50;;;7.63;73.82
76448;BME280;65284;51.040;13.722;2023-04-08T10:43:19;100567.91;;;7.65;73.73
76448;BME280;65284;51.040;13.722;2023-04-08T10:45:46;100570.44;;;7.66;73.91
76448;BME280;65284;51.040;13.722;2023-04-08T10:48:19;100571.13;;;7.68;73.15
76448;BME280;65284;51.040;13.722;2023-04-08T10:50:55;100568.97;;;7.73;73.25
76448;BME280;65284;51.040;13.722;2023-04-08T10:53:26;100564.81;;;7.81;72.26
76448;BME280;65284;51.040;13.722;2023-04-08T10:58:30;100564.44;;;8.06;72.65
76448;BME280;65284;51.040;13.722;2023-04-08T11:01:05;100569.06;;;8.14;71.12
76448;BME280;65284;51.040;13.722;2023-04-08T11:03:33;100570.16;;;8.11;69.54
76448;BME280;65284;51.040;13.722;2023-04-08T11:06:01;100567.78;;;8.08;70.00
76448;BME280;65284;51.040;13.722;2023-04-08T11:08:30;100567.78;;;8.08;70.33
76448;BME280;65284;51.040;13.722;2023-04-08T11:10:58;100572.09;;;8.09;70.57
76448;BME280;65284;51.040;13.722;2023-04-08T11:13:27;100574.28;;;8.04;71.21
76448;BME280;65284;51.040;13.722;2023-04-08T11:15:55;100572.78;;;8.02;71.15
76448;BME280;65284;51.040;13.722;2023-04-08T11:18:22;100569.97;;;8.03;71.40
76448;BME280;65284;51.040;13.722;2023-04-08T11:20:52;100570.75;;;7.94;71.35
76448;BME280;65284;51.040;13.722;2023-04-08T11:23:19;100583.53;;;7.89;72.23
76448;BME280;65284;51.040;13.722;2023-04-08T11:25:46;100580.44;;;7.84;72.61
76448;BME280;65284;51.040;13.722;2023-04-08T11:28:13;100581.66;;;7.80;72.00
76448;BME280;65284;51.040;13.722;2023-04-08T11:30:40;100589.84;;;7.77;72.78
76448;BME280;65284;51.040;13.722;2023-04-08T11:33:07;100585.34;;;7.67;73.37
76448;BME280;65284;51.040;13.722;2023-04-08T11:35:38;100584.19;;;7.60;74.05
76448;BME280;65284;51.040;13.722;2023-04-08T11:38:04;100591.84;;;7.63;73.19
76448;BME280;65284;51.040;13.722;2023-04-08T11:40:31;100591.06;;;7.51;74.23
76448;BME280;65284;51.040;13.722;2023-04-08T11:42:57;100589.69;;;7.57;74.25
76448;BME280;65284;51.040;13.722;2023-04-08T11:45:23;100594.75;;;7.60;74.84
76448;BME280;65284;51.040;13.722;2023-04-08T11:47:51;100595.50;;;7.51;75.44
76448;BME280;65284;51.040;13.722;2023-04-08T11:50:25;100600.34;;;7.46;75.49
76448;BME280;65284;51.040;13.722;2023-04-08T11:52:52;100604.88;;;7.55;74.93
76448;BME280;65284;51.040;13.722;2023-04-08T11:55:26;100600.78;;;7.51;74.84
76448;BME280;65284;51.040;13.722;2023-04-08T11:57:54;100595.91;;;7.67;74.90
76448;BME280;65284;51.040;13.722;2023-04-08T12:00:22;100604.81;;;7.66;74.39
76448;BME280;65284;51.040;13.722;2023-04-08T12:02:50;100597.22;;;7.73;73.95
76448;BME280;65284;51.040;13.722;2023-04-08T12:05:17;100602.34;;;7.74;74.43
76448;BME280;65284;51.040;13.722;2023-04-08T12:07:43;100600.47;;;7.65;74.60
76448;BME280;65284;51.040;13.722;2023-04-08T12:10:10;100602.28;;;7.65;75.36
76448;BME280;65284;51.040;13.722;2023-04-08T12:12:38;100606.41;;;7.58;75.39
76448;BME280;65284;51.040;13.722;2023-04-08T12:15:05;100607.25;;;7.58;75.52
76448;BME280;65284;51.040;13.722;2023-04-08T12:17:33;100606.16;;;7.61;75.23
76448;BME280;65284;51.040;13.722;2023-04-08T12:20:00;100588.44;;;7.72;75.78
76448;BME280;65284;51.040;13.722;2023-04-08T12:22:26;100605.50;;;7.68;77.00
76448;BME280;65284;51.040;13.722;2023-04-08T12:24:53;100615.41;;;7.66;76.90
76448;BME280;65284;51.040;13.722;2023-04-08T12:27:19;100616.47;;;7.64;77.42
76448;BME280;65284;51.040;13.722;2023-04-08T12:29:46;100618.94;;;7.77;76.79
76448;BME280;65284;51.040;13.722;2023-04-08T12:32:14;100612.66;;;7.78;76.84
76448;BME280;65284;51.040;13.722;2023-04-08T12:34:41;100618.81;;;7.78;76.96
76448;BME280;65284;51.040;13.722;2023-04-08T12:37:07;100620.50;;;7.79;77.43
76448;BME280;65284;51.040;13.722;2023-04-08T12:39:34;100622.03;;;7.82;77.67
76448;BME280;65284;51.040;13.722;2023-04-08T12:42:00;100623.50;;;7.74;76.69
76448;BME280;65284;51.040;13.722;2023-04-08T12:44:27;100631.00;;;7.69;77.10
76448;BME280;65284;51.040;13.722;2023-04-08T12:46:53;100638.47;;;7.64;77.21
76448;BME280;65284;51.040;13.722;2023-04-08T12:49:20;100629.44;;;7.67;77.10
76448;BME280;65284;51.040;13.722;2023-04-08T12:51:48;100632.19;;;7.65;77.22
76448;BME280;65284;51.040;13.722;2023-04-08T12:54:15;100633.69;;;7.58;76.90
76448;BME280;65284;51.040;13.722;2023-04-08T12:56:42;100638.66;;;7.51;76.66
76448;BME280;65284;51.040;13.722;2023-04-08T12:59:09;100633.19;;;7.64;76.72
76448;BME280;65284;51.040;13.722;2023-04-08T13:01:35;100640.13;;;7.65;76.60
76448;BME280;65284;51.040;13.722;2023-04-08T13:04:02;100641.56;;;7.69;75.96